createdAt,value
2017-12-28T00:01:29.038Z,10.50
2017-12-28T00:03:55.831Z,10.50
2017-12-28T00:06:22.940Z,10.50
2017-12-28T00:08:49.697Z,10.50
2017-12-28T00:11:16.417Z,10.50
2017-12-28T00:13:44.683Z,10.50
2017-12-28T00:16:11.531Z,10.50
2017-12-28T00:18:38.577Z,10.50
2017-12-28T00:21:05.338Z,10.50
2017-12-28T00:23:31.981Z,10.50
2017-12-28T00:25:58.699Z,10.60
2017-12-28T00:28:25.472Z,10.50
2017-12-28T00:30:52.155Z,10.50
2017-12-28T00:33:18.940Z,10.40
2017-12-28T00:41:02.596Z,10.40
2017-12-28T00:43:29.257Z,10.40
2017-12-28T00:45:56.739Z,10.40
2017-12-28T00:48:23.540Z,10.40
2017-12-28T00:50:50.215Z,10.50
2017-12-28T00:53:20.669Z,10.40
2017-12-28T00:55:47.335Z,10.40
2017-12-28T00:58:14.090Z,10.30
2017-12-28T01:00:41.222Z,10.30
2017-12-28T01:03:07.876Z,10.30
2017-12-28T01:05:34.925Z,10.30
2017-12-28T01:08:01.597Z,10.40
2017-12-28T01:10:28.374Z,10.40
2017-12-28T01:12:55.102Z,10.30
2017-12-28T01:15:21.858Z,10.30
2017-12-28T01:20:38.247Z,10.40
2017-12-28T01:23:14.102Z,10.30
2017-12-28T01:25:44.649Z,10.30
2017-12-28T01:28:14.599Z,10.30
2017-12-28T01:30:41.246Z,10.30
2017-12-28T01:33:08.039Z,10.30
2017-12-28T01:35:34.716Z,10.30
2017-12-28T01:38:01.385Z,10.30
2017-12-28T01:40:28.198Z,10.20
2017-12-28T01:42:54.913Z,10.20
2017-12-28T01:45:21.617Z,10.20
2017-12-28T01:50:38.255Z,10.30
2017-12-28T01:53:04.909Z,10.30
2017-12-28T01:55:31.544Z,10.30
2017-12-28T01:57:58.216Z,10.20
2017-12-28T02:00:32.213Z,10.20
2017-12-28T02:03:08.235Z,10.20
2017-12-28T02:10:53.347Z,10.20
2017-12-28T02:13:20.598Z,10.20
2017-12-28T02:15:47.512Z,10.30
2017-12-28T02:18:14.288Z,10.20
2017-12-28T02:20:40.933Z,10.20
2017-12-28T02:23:07.591Z,10.20
2017-12-28T02:25:34.376Z,10.20
2017-12-28T02:28:02.683Z,10.30
2017-12-28T02:30:29.337Z,10.20
2017-12-28T02:32:56.000Z,10.20
2017-12-28T02:38:14.168Z,10.10
2017-12-28T02:43:19.358Z,10.20
2017-12-28T02:45:46.025Z,10.10
2017-12-28T02:48:12.741Z,10.20
2017-12-28T02:50:39.453Z,10.20
2017-12-28T02:53:06.112Z,10.20
2017-12-28T02:55:32.916Z,10.20
2017-12-28T02:57:59.599Z,10.30
2017-12-28T03:00:26.305Z,10.30
2017-12-28T03:05:32.235Z,10.30
2017-12-28T03:08:02.709Z,10.30
2017-12-28T03:10:38.133Z,10.30
2017-12-28T03:13:08.724Z,10.30
2017-12-28T03:15:35.368Z,10.30
2017-12-28T03:18:02.142Z,10.30
2017-12-28T03:20:28.834Z,10.30
2017-12-28T03:22:55.513Z,10.30
2017-12-28T03:25:22.286Z,10.30
2017-12-28T03:27:48.949Z,10.30
2017-12-28T03:30:15.631Z,10.40
2017-12-28T03:32:42.382Z,10.30
2017-12-28T03:35:14.812Z,10.30
2017-12-28T03:37:41.614Z,10.30
2017-12-28T03:40:08.299Z,10.30
2017-12-28T03:42:35.107Z,10.20
2017-12-28T03:45:02.797Z,10.30
2017-12-28T03:50:07.901Z,10.30
2017-12-28T03:55:14.427Z,10.30
2017-12-28T04:00:26.165Z,10.30
2017-12-28T04:02:52.838Z,10.30
2017-12-28T04:05:19.504Z,10.30
2017-12-28T04:13:04.533Z,10.20
2017-12-28T04:18:10.094Z,10.20
2017-12-28T04:20:36.765Z,10.20
2017-12-28T04:23:03.420Z,10.20
2017-12-28T04:25:32.722Z,10.20
2017-12-28T04:27:59.453Z,10.20
2017-12-28T04:30:26.184Z,10.10
2017-12-28T04:32:56.769Z,10.20
2017-12-28T04:35:23.564Z,10.20
2017-12-28T04:37:50.209Z,10.20
2017-12-28T04:40:16.900Z,10.10
2017-12-28T04:42:43.629Z,10.10
2017-12-28T04:45:10.368Z,10.20
2017-12-28T04:47:37.134Z,10.20
2017-12-28T04:50:03.794Z,10.20
2017-12-28T04:52:32.652Z,10.10
2017-12-28T04:54:59.317Z,10.10
2017-12-28T04:57:25.964Z,10.10
2017-12-28T04:59:56.677Z,10.10
2017-12-28T05:05:02.646Z,10.10
2017-12-28T05:10:08.865Z,10.00
2017-12-28T05:12:38.750Z,10.00
2017-12-28T05:15:05.405Z,10.00
2017-12-28T05:17:32.221Z,10.00
2017-12-28T05:19:58.864Z,10.00
2017-12-28T05:22:25.532Z,10.00
2017-12-28T05:24:52.174Z,10.00
2017-12-28T05:27:18.996Z,9.90
2017-12-28T05:29:45.648Z,10.00
2017-12-28T05:37:32.750Z,10.00
2017-12-28T05:40:02.858Z,10.00
2017-12-28T05:45:20.325Z,10.00
2017-12-28T05:47:46.983Z,10.00
2017-12-28T05:50:13.786Z,10.00
2017-12-28T05:52:40.480Z,10.00
2017-12-28T05:55:07.266Z,10.00
2017-12-28T05:57:34.610Z,10.10
2017-12-28T06:00:01.334Z,10.00
2017-12-28T06:02:28.311Z,10.00
2017-12-28T06:04:56.654Z,10.00
2017-12-28T06:07:32.323Z,10.00
2017-12-28T06:09:58.953Z,10.00
2017-12-28T06:12:25.638Z,10.00
2017-12-28T06:14:56.771Z,9.90
2017-12-28T06:17:32.381Z,10.00
2017-12-28T06:19:59.023Z,10.00
2017-12-28T06:22:25.691Z,9.90
2017-12-28T06:24:52.385Z,10.00
2017-12-28T06:27:19.145Z,10.00
2017-12-28T06:29:45.817Z,10.00
2017-12-28T06:32:12.523Z,10.00
2017-12-28T06:34:39.243Z,10.00
2017-12-28T06:37:05.913Z,10.00
2017-12-28T06:39:32.554Z,10.00
2017-12-28T06:41:59.248Z,10.00
2017-12-28T06:44:26.037Z,10.00
2017-12-28T06:46:53.111Z,10.00
2017-12-28T06:49:19.885Z,9.90
2017-12-28T06:51:46.577Z,10.00
2017-12-28T06:54:26.244Z,10.00
2017-12-28T06:56:52.898Z,10.00
2017-12-28T06:59:20.782Z,10.00
2017-12-28T07:01:50.780Z,10.00
2017-12-28T07:04:17.508Z,10.00
2017-12-28T07:06:44.766Z,10.00
2017-12-28T07:09:14.699Z,10.00
2017-12-28T07:11:44.789Z,10.00
2017-12-28T07:14:11.438Z,10.00
2017-12-28T07:16:38.118Z,10.10
2017-12-28T07:19:04.827Z,10.10
2017-12-28T07:21:31.541Z,10.00
2017-12-28T07:23:58.224Z,10.00
2017-12-28T07:26:24.882Z,10.10
2017-12-28T07:28:56.823Z,10.00
2017-12-28T07:31:23.488Z,10.00
2017-12-28T07:33:50.143Z,10.00
2017-12-28T07:36:16.966Z,10.00
2017-12-28T07:38:43.611Z,10.00
2017-12-28T07:41:10.305Z,10.00
2017-12-28T07:43:37.105Z,10.00
2017-12-28T07:46:03.877Z,10.00
2017-12-28T07:48:30.536Z,9.90
2017-12-28T07:51:02.935Z,10.00
2017-12-28T07:53:38.320Z,10.00
2017-12-28T07:58:43.523Z,10.00
2017-12-28T08:01:14.863Z,10.00
2017-12-28T08:03:41.519Z,10.00
2017-12-28T08:06:08.313Z,10.00
2017-12-28T08:08:38.825Z,10.00
2017-12-28T08:11:05.530Z,10.00
2017-12-28T08:13:32.310Z,10.00
2017-12-28T08:15:59.003Z,10.00
2017-12-28T08:18:25.779Z,10.00
2017-12-28T08:20:56.766Z,10.00
2017-12-28T08:23:32.355Z,10.00
2017-12-28T08:25:58.989Z,10.00
2017-12-28T08:28:27.816Z,10.00
2017-12-28T08:33:33.730Z,10.00
2017-12-28T08:36:00.515Z,10.00
2017-12-28T08:38:38.388Z,10.00
2017-12-28T08:41:08.726Z,10.00
2017-12-28T08:43:38.891Z,9.90
2017-12-28T08:46:05.530Z,9.90
2017-12-28T08:48:32.192Z,9.90
2017-12-28T08:50:58.949Z,9.90
2017-12-28T08:53:26.861Z,10.00
2017-12-28T08:55:56.719Z,9.90
2017-12-28T08:58:32.482Z,9.90
2017-12-28T09:03:37.987Z,9.90
2017-12-28T09:06:04.656Z,9.90
2017-12-28T09:08:31.438Z,9.80
2017-12-28T09:10:58.146Z,9.90
2017-12-28T09:13:24.903Z,9.90
2017-12-28T09:15:51.549Z,9.90
2017-12-28T09:18:18.216Z,9.90
2017-12-28T09:23:23.747Z,9.90
2017-12-28T09:25:50.774Z,9.90
2017-12-28T09:28:26.430Z,9.90
2017-12-28T09:30:53.102Z,9.90
2017-12-28T09:35:59.803Z,9.90
2017-12-28T09:38:26.944Z,9.90
2017-12-28T09:40:54.002Z,9.90
2017-12-28T09:43:20.711Z,9.90
2017-12-28T09:45:47.453Z,9.90
2017-12-28T09:48:14.113Z,9.90
2017-12-28T09:50:40.793Z,9.90
2017-12-28T09:53:07.534Z,9.90
2017-12-28T09:55:34.274Z,9.90
2017-12-28T09:58:01.015Z,9.90
2017-12-28T10:00:27.718Z,9.90
2017-12-28T10:02:54.353Z,9.90
2017-12-28T10:05:21.033Z,9.90
2017-12-28T10:07:47.773Z,9.90
2017-12-28T10:10:14.449Z,9.90
2017-12-28T10:12:41.098Z,9.90
2017-12-28T10:15:07.844Z,9.90
2017-12-28T10:17:38.815Z,9.90
2017-12-28T10:20:14.473Z,9.90
2017-12-28T10:22:41.136Z,9.90
2017-12-28T10:25:07.798Z,9.90
2017-12-28T10:27:34.714Z,9.90
2017-12-28T10:30:01.460Z,9.90
2017-12-28T10:32:32.785Z,9.90
2017-12-28T10:35:02.994Z,9.90
2017-12-28T10:37:29.759Z,9.90
2017-12-28T10:39:56.439Z,9.90
2017-12-28T10:42:23.151Z,9.90
2017-12-28T10:44:50.290Z,9.90
2017-12-28T10:47:16.931Z,9.90
2017-12-28T10:49:44.999Z,9.90
2017-12-28T10:52:20.424Z,9.90
2017-12-28T10:54:56.489Z,9.90
2017-12-28T10:57:23.186Z,9.90
2017-12-28T10:59:49.941Z,9.80
2017-12-28T11:04:55.341Z,9.80
2017-12-28T11:07:22.022Z,9.80
2017-12-28T11:09:48.776Z,9.80
2017-12-28T11:12:15.457Z,9.90
2017-12-28T11:14:44.911Z,9.90
2017-12-28T11:17:11.591Z,9.90
2017-12-28T11:19:38.800Z,9.90
2017-12-28T11:22:05.479Z,9.90
2017-12-28T11:24:32.121Z,9.90
2017-12-28T11:26:58.798Z,9.90
2017-12-28T11:29:25.564Z,9.90
2017-12-28T11:31:52.223Z,9.80
2017-12-28T11:34:18.870Z,9.80
2017-12-28T11:36:45.517Z,9.80
2017-12-28T11:39:12.321Z,9.80
2017-12-28T11:41:38.978Z,9.80
2017-12-28T11:44:05.667Z,9.70
2017-12-28T11:46:32.513Z,9.70
2017-12-28T11:48:59.261Z,9.70
2017-12-28T11:54:05.081Z,9.60
2017-12-28T11:56:38.487Z,9.60
2017-12-28T11:59:11.074Z,9.60
2017-12-28T12:01:44.664Z,9.60
2017-12-28T12:06:52.683Z,9.60
2017-12-28T12:09:19.326Z,9.60
2017-12-28T12:11:46.096Z,9.60
2017-12-28T12:14:12.765Z,9.70
2017-12-28T12:16:39.407Z,9.70
2017-12-28T12:19:06.084Z,9.70
2017-12-28T12:21:32.739Z,9.60
2017-12-28T12:23:59.501Z,9.60
2017-12-28T12:26:26.162Z,9.60
2017-12-28T12:28:52.857Z,9.60
2017-12-28T12:31:19.610Z,9.60
2017-12-28T12:33:50.977Z,9.60
2017-12-28T12:36:17.635Z,9.60
2017-12-28T12:38:44.297Z,9.60
2017-12-28T12:41:14.966Z,9.60
2017-12-28T12:43:41.697Z,9.60
2017-12-28T12:46:08.446Z,9.60
2017-12-28T12:48:35.106Z,9.60
2017-12-28T12:51:01.774Z,9.60
2017-12-28T12:53:28.470Z,9.60
2017-12-28T12:55:55.217Z,9.60
2017-12-28T12:58:26.989Z,9.60
2017-12-28T13:00:56.887Z,9.60
2017-12-28T13:03:23.745Z,9.70
2017-12-28T13:05:50.972Z,9.70
2017-12-28T13:08:17.619Z,9.70
2017-12-28T13:10:50.608Z,9.70
2017-12-28T13:13:20.905Z,9.60
2017-12-28T13:15:56.597Z,9.60
2017-12-28T13:18:26.869Z,9.70
2017-12-28T13:20:56.999Z,9.70
2017-12-28T13:28:50.514Z,9.70
2017-12-28T13:31:17.221Z,9.60
2017-12-28T13:33:44.018Z,9.70
2017-12-28T13:38:50.987Z,9.60
2017-12-28T13:41:26.601Z,9.60
2017-12-28T13:43:53.272Z,9.60
2017-12-28T13:46:20.094Z,9.60
2017-12-28T13:48:46.811Z,9.60
2017-12-28T13:51:15.037Z,9.60
2017-12-28T13:53:41.689Z,9.60
2017-12-28T13:56:08.898Z,9.60
2017-12-28T13:58:35.530Z,9.70
2017-12-28T14:01:02.193Z,9.60
2017-12-28T14:03:28.901Z,9.60
2017-12-28T14:05:55.697Z,9.60
2017-12-28T14:11:01.819Z,9.60
2017-12-28T14:16:07.603Z,9.50
2017-12-28T14:18:34.424Z,9.60
2017-12-28T14:21:01.093Z,9.60
2017-12-28T14:23:27.725Z,9.60
2017-12-28T14:25:54.401Z,9.60
2017-12-28T14:28:21.172Z,9.60
2017-12-28T14:30:47.872Z,9.60
2017-12-28T14:33:15.058Z,9.50
2017-12-28T14:35:41.725Z,9.60
2017-12-28T14:38:08.425Z,9.50
2017-12-28T14:40:35.169Z,9.50
2017-12-28T14:45:50.569Z,9.60
2017-12-28T14:48:17.266Z,9.60
2017-12-28T14:53:23.000Z,9.60
2017-12-28T14:55:49.655Z,9.50
2017-12-28T14:58:16.318Z,9.60
2017-12-28T15:00:43.080Z,9.60
2017-12-28T15:03:09.760Z,9.60
2017-12-28T15:05:36.437Z,9.60
2017-12-28T15:08:03.236Z,9.60
2017-12-28T15:10:29.905Z,9.60
2017-12-28T15:12:56.574Z,9.60
2017-12-28T15:15:23.325Z,9.60
2017-12-28T15:17:49.992Z,9.60
2017-12-28T15:20:16.665Z,9.60
2017-12-28T15:22:43.493Z,9.60
2017-12-28T15:25:10.117Z,9.60
2017-12-28T15:27:38.969Z,9.60
2017-12-28T15:30:05.614Z,9.60
2017-12-28T15:32:32.277Z,9.70
2017-12-28T15:40:17.976Z,9.70
2017-12-28T15:42:44.627Z,9.80
2017-12-28T15:45:11.296Z,9.80
2017-12-28T15:47:38.140Z,9.80
2017-12-28T15:50:06.020Z,9.80
2017-12-28T15:52:33.554Z,9.80
2017-12-28T15:55:01.063Z,9.80
2017-12-28T15:57:28.087Z,9.80
2017-12-28T15:59:55.180Z,9.80
2017-12-28T16:02:22.227Z,9.80
2017-12-28T16:04:48.943Z,9.80
2017-12-28T16:07:15.658Z,9.70
2017-12-28T16:09:42.984Z,9.70
2017-12-28T16:12:10.053Z,9.70
2017-12-28T16:14:36.822Z,9.70
2017-12-28T16:17:03.478Z,9.70
2017-12-28T16:19:30.917Z,9.80
2017-12-28T16:21:57.608Z,9.80
2017-12-28T16:24:24.439Z,9.80
2017-12-28T16:26:51.897Z,9.70
2017-12-28T16:29:18.592Z,9.80
2017-12-28T16:31:51.035Z,9.80
2017-12-28T16:34:17.742Z,9.70
2017-12-28T16:36:44.379Z,9.70
2017-12-28T16:39:15.139Z,9.80
2017-12-28T16:41:41.933Z,9.80
2017-12-28T16:44:08.595Z,9.70
2017-12-28T16:46:35.434Z,9.70
2017-12-28T16:49:02.209Z,9.70
2017-12-28T16:51:33.015Z,9.70
2017-12-28T16:56:39.209Z,9.70
2017-12-28T16:59:05.948Z,9.70
2017-12-28T17:01:32.673Z,9.70
2017-12-28T17:03:59.765Z,9.70
2017-12-28T17:06:26.513Z,9.80
2017-12-28T17:14:12.695Z,9.70
2017-12-28T17:19:18.622Z,9.70
2017-12-28T17:21:45.706Z,9.70
2017-12-28T17:26:51.893Z,9.70
2017-12-28T17:29:21.152Z,9.70
2017-12-28T17:31:47.998Z,9.70
2017-12-28T17:34:15.438Z,9.70
2017-12-28T17:39:21.198Z,9.70
2017-12-28T17:41:48.343Z,9.70
2017-12-28T17:44:15.069Z,9.70
2017-12-28T17:46:50.770Z,9.70
2017-12-28T17:49:26.615Z,9.70
2017-12-28T17:54:33.203Z,9.70
2017-12-28T17:59:39.180Z,9.70
2017-12-28T18:02:09.034Z,9.60
2017-12-28T18:04:36.148Z,9.70
2017-12-28T18:07:02.966Z,9.70
2017-12-28T18:09:33.078Z,9.70
2017-12-28T18:12:00.176Z,9.70
2017-12-28T18:14:26.982Z,9.70
2017-12-28T18:16:53.706Z,9.70
2017-12-28T18:19:20.835Z,9.70
2017-12-28T18:21:47.565Z,9.70
2017-12-28T18:24:14.356Z,9.70
2017-12-28T18:26:41.815Z,9.70
2017-12-28T18:29:08.635Z,9.70
2017-12-28T18:31:36.140Z,9.70
2017-12-28T18:34:02.935Z,9.70
2017-12-28T18:36:29.984Z,9.70
2017-12-28T18:38:56.644Z,9.70
2017-12-28T18:44:03.168Z,9.60
2017-12-28T18:46:29.908Z,9.70
2017-12-28T18:48:56.672Z,9.70
2017-12-28T18:51:23.320Z,9.60
2017-12-28T18:53:50.443Z,9.70
2017-12-28T18:56:17.633Z,9.70
2017-12-28T18:58:44.443Z,9.70
2017-12-28T19:01:15.202Z,9.70
2017-12-28T19:03:42.664Z,9.70
2017-12-28T19:06:09.506Z,9.70
2017-12-28T19:08:39.242Z,9.70
2017-12-28T19:11:06.070Z,9.70
2017-12-28T19:13:33.103Z,9.70
2017-12-28T19:15:59.840Z,9.70
2017-12-28T19:18:26.533Z,9.70
2017-12-28T19:20:53.220Z,9.70
2017-12-28T19:23:20.114Z,9.70
2017-12-28T19:25:46.879Z,9.70
2017-12-28T19:28:13.577Z,9.60
2017-12-28T19:30:45.105Z,9.70
2017-12-28T19:35:51.703Z,9.70
2017-12-28T19:38:18.543Z,9.70
2017-12-28T19:40:45.368Z,9.70
2017-12-28T19:43:12.217Z,9.70
2017-12-28T19:45:39.250Z,9.70
2017-12-28T19:48:06.129Z,9.70
2017-12-28T19:50:32.975Z,9.70
2017-12-28T19:53:00.194Z,9.70
2017-12-28T19:55:27.033Z,9.70
2017-12-28T20:00:32.800Z,9.70
2017-12-28T20:02:59.990Z,9.70
2017-12-28T20:05:27.229Z,9.70
2017-12-28T20:07:53.931Z,9.70
2017-12-28T20:10:21.141Z,9.60
2017-12-28T20:12:48.242Z,9.60
2017-12-28T20:15:15.066Z,9.70
2017-12-28T20:17:45.142Z,9.60
2017-12-28T20:20:11.863Z,9.70
2017-12-28T20:22:39.074Z,9.70
2017-12-28T20:25:06.155Z,9.70
2017-12-28T20:27:33.015Z,9.70
2017-12-28T20:30:00.195Z,9.60
2017-12-28T20:32:26.925Z,9.70
2017-12-28T20:34:54.072Z,9.60
2017-12-28T20:37:21.173Z,9.60
2017-12-28T20:39:47.972Z,9.60
2017-12-28T20:42:15.067Z,9.60
2017-12-28T20:44:42.289Z,9.60
2017-12-28T20:47:09.140Z,9.60
2017-12-28T20:49:36.421Z,9.60
2017-12-28T20:52:03.653Z,9.60
2017-12-28T20:54:30.482Z,9.60
2017-12-28T20:57:03.286Z,9.60
2017-12-28T20:59:30.118Z,9.60
2017-12-28T21:04:35.859Z,9.60
2017-12-28T21:12:20.994Z,9.60
2017-12-28T21:14:47.807Z,9.60
2017-12-28T21:17:15.483Z,9.60
2017-12-28T21:19:45.215Z,9.60
2017-12-28T21:22:12.021Z,9.60
2017-12-28T21:27:21.280Z,9.60
2017-12-28T21:29:48.513Z,9.60
2017-12-28T21:32:15.372Z,9.60
2017-12-28T21:34:42.194Z,9.60
2017-12-28T21:37:08.889Z,9.60
2017-12-28T21:39:36.519Z,9.60
2017-12-28T21:42:03.350Z,9.60
2017-12-28T21:44:30.205Z,9.60
2017-12-28T21:47:03.144Z,9.60
2017-12-28T21:49:33.281Z,9.60
2017-12-28T21:52:00.178Z,9.70
2017-12-28T21:54:27.367Z,9.60
2017-12-28T21:56:54.520Z,9.60
2017-12-28T22:02:08.762Z,9.60
2017-12-28T22:07:15.341Z,9.60
2017-12-28T22:09:50.791Z,9.60
2017-12-28T22:14:57.190Z,9.60
2017-12-28T22:17:24.295Z,9.60
2017-12-28T22:19:51.149Z,9.60
2017-12-28T22:22:18.338Z,9.60
2017-12-28T22:24:50.877Z,9.60
2017-12-28T22:27:17.969Z,9.60
2017-12-28T22:29:45.083Z,9.60
2017-12-28T22:32:12.237Z,9.60
2017-12-28T22:34:39.344Z,9.60
2017-12-28T22:37:06.524Z,9.60
2017-12-28T22:39:33.712Z,9.60
2017-12-28T22:42:00.849Z,9.50
2017-12-28T22:44:27.573Z,9.50
2017-12-28T22:46:54.717Z,9.50
2017-12-28T22:49:27.309Z,9.60
2017-12-28T22:54:35.026Z,9.60
2017-12-28T22:59:45.213Z,9.60
2017-12-28T23:02:12.426Z,9.60
2017-12-28T23:04:39.165Z,9.60
2017-12-28T23:07:06.747Z,9.60
2017-12-28T23:09:34.317Z,9.60
2017-12-28T23:14:39.976Z,9.60
2017-12-28T23:17:07.213Z,9.60
2017-12-28T23:19:34.476Z,9.60
2017-12-28T23:22:03.341Z,9.50
2017-12-28T23:24:30.445Z,9.50
2017-12-28T23:26:57.645Z,9.50
2017-12-28T23:29:27.362Z,9.60
2017-12-28T23:31:54.452Z,9.50
2017-12-28T23:34:22.316Z,9.50
2017-12-28T23:36:49.532Z,9.50
2017-12-28T23:39:16.647Z,9.60
2017-12-28T23:41:44.229Z,9.60
2017-12-28T23:44:11.750Z,9.60
2017-12-28T23:46:38.569Z,9.60
2017-12-28T23:49:05.783Z,9.60
2017-12-28T23:51:32.479Z,9.60
2017-12-28T23:53:59.646Z,9.60
2017-12-28T23:59:06.679Z,9.50
